Impacts TAF Board INFO
FOR SITUATIONAL AWARENESS. NOT TO BE USED FOR FLIGHT PLANNING PURPOSES.
IDs:

KBOS - Boston/Logan Intl, MA, US

Issued at 1502 UTC 24 Apr 2017
Updated at 1655 UTC 24 Apr 2017
Potential Impact None Slight Moderate High
Time1554Z 24/17Z 24/18Z 24/19Z 24/20Z 24/21Z 24/22Z 24/23Z 25/00Z 25/01Z 25/02Z 25/03Z 25/04Z 25/05Z>>
Type OBS PRVL PRVL PRVL PRVL PRVL PRVL PRVL PRVL PRVL PRVL PRVL PRVL PRVL
VIS 10 >6 >6 >6 >6 >6 >6 >6 >6 >6 >6 >6 >6 >6
CIG 250 250 250 250 250 250 250 250 250 250 250 80 80 80
Cover OVC BKN BKN BKN BKN BKN BKN BKN BKN BKN BKN OVC OVC OVC
FltCat VFR VFR VFR VFR VFR VFR VFR VFR VFR VFR VFR VFR VFR VFR
WX -- -- -- -- -- -- -- -- -- -- -- -- -- --
WDir 80 120 120 120 120 120 120 120 120 120 120 90 90 90
WSpd 4 10 10 10 10 10 10 10 10 10 10 7 7 7
WGst -- -- -- -- -- -- -- -- -- -- -- -- -- --

Raw TAF
KBOS 241502Z 2415/2518 12010KT P6SM BKN250
  FM250300 09007KT P6SM OVC080
  FM251300 06010G17KT P6SM -RA OVC040
  FM251700 06012G20KT 6SM -RA BR OVC020


Raw METAR
KBOS 241554Z 08004KT 10SM FEW160 SCT220 OVC250 17/04 A3018 RMK AO2 SLP218 VIRGA OHD-S T01720039
KBOS 241454Z 13008KT 10SM FEW160 BKN270 16/06 A3018 RMK AO2 SLP219 T01560056 53008
KBOS 241354Z 13004KT 10SM FEW160 BKN270 14/06 A3017 RMK AO2 SLP216 T01440056

METAR Board
Radar Display
Forecast Discussion

FOR SITUATIONAL AWARENESS. NOT TO BE USED FOR FLIGHT PLANNING PURPOSES.

Page loaded:  16:55 UTC  |   09:55 AM Pacific  |   10:55 AM Mountain  |   11:55 AM Central  |   12:55 PM Eastern

 

ADVISORIES

FORECASTS

FORECASTS

OBSERVATIONS

USER TOOLS

ABOUT US